sensor_id;sensor_type;location;lat;lon;timestamp;pressure;altitude;pressure_sealevel;temperature;humidity
57050;BME280;42935;50.966;16.992;2023-08-12T00:01:23;102097.05;;;13.14;100.00
57050;BME280;42935;50.966;16.992;2023-08-12T00:04:45;102107.66;;;13.25;100.00
57050;BME280;42935;50.966;16.992;2023-08-12T00:08:06;102110.48;;;12.60;100.00
57050;BME280;42935;50.966;16.992;2023-08-12T00:11:38;102116.17;;;12.74;100.00
57050;BME280;42935;50.966;16.992;2023-08-12T00:15:01;102057.29;;;12.53;100.00
57050;BME280;42935;50.966;16.992;2023-08-12T00:18:54;102103.44;;;12.97;100.00
57050;BME280;42935;50.966;16.992;2023-08-12T00:22:14;102075.82;;;12.85;100.00
57050;BME280;42935;50.966;16.992;2023-08-12T00:25:31;102106.07;;;13.02;100.00
57050;BME280;42935;50.966;16.992;2023-08-12T00:28:55;102059.05;;;12.80;100.00
57050;BME280;42935;50.966;16.992;2023-08-12T00:32:12;102051.82;;;12.64;100.00
57050;BME280;42935;50.966;16.992;2023-08-12T00:35:34;102087.09;;;12.96;100.00
57050;BME280;42935;50.966;16.992;2023-08-12T00:38:54;102084.97;;;12.81;100.00
57050;BME280;42935;50.966;16.992;2023-08-12T00:42:17;102042.41;;;12.62;100.00
57050;BME280;42935;50.966;16.992;2023-08-12T00:45:37;102044.27;;;12.71;100.00
57050;BME280;42935;50.966;16.992;2023-08-12T00:49:00;102028.52;;;12.60;100.00
57050;BME280;42935;50.966;16.992;2023-08-12T00:52:19;102055.48;;;12.76;100.00
57050;BME280;42935;50.966;16.992;2023-08-12T00:55:40;102063.76;;;12.86;100.00
57050;BME280;42935;50.966;16.992;2023-08-12T00:59:05;102045.93;;;12.85;100.00
57050;BME280;42935;50.966;16.992;2023-08-12T01:02:27;102003.94;;;12.38;100.00
57050;BME280;42935;50.966;16.992;2023-08-12T01:05:50;102045.83;;;12.59;100.00
57050;BME280;42935;50.966;16.992;2023-08-12T01:09:11;102001.55;;;12.12;100.00
57050;BME280;42935;50.966;16.992;2023-08-12T01:13:13;102050.66;;;12.43;100.00
57050;BME280;42935;50.966;16.992;2023-08-12T01:16:36;101994.95;;;12.36;100.00
57050;BME280;42935;50.966;16.992;2023-08-12T01:20:05;102043.86;;;12.68;100.00
57050;BME280;42935;50.966;16.992;2023-08-12T01:23:32;102019.28;;;12.50;100.00
57050;BME280;42935;50.966;16.992;2023-08-12T01:26:56;102045.90;;;12.64;100.00
57050;BME280;42935;50.966;16.992;2023-08-12T01:30:19;102011.23;;;12.50;100.00
57050;BME280;42935;50.966;16.992;2023-08-12T01:37:13;102056.05;;;12.77;100.00
57050;BME280;42935;50.966;16.992;2023-08-12T01:40:36;102063.95;;;12.57;100.00
57050;BME280;42935;50.966;16.992;2023-08-12T01:44:01;102014.87;;;12.21;100.00
57050;BME280;42935;50.966;16.992;2023-08-12T01:47:30;102069.89;;;12.61;100.00
57050;BME280;42935;50.966;16.992;2023-08-12T01:51:22;102001.71;;;12.16;100.00
57050;BME280;42935;50.966;16.992;2023-08-12T01:54:41;102046.07;;;12.48;100.00
57050;BME280;42935;50.966;16.992;2023-08-12T01:58:30;102053.39;;;12.48;100.00
57050;BME280;42935;50.966;16.992;2023-08-12T02:01:47;102048.77;;;12.49;100.00
57050;BME280;42935;50.966;16.992;2023-08-12T02:05:08;102044.37;;;12.49;100.00
57050;BME280;42935;50.966;16.992;2023-08-12T02:08:32;102034.77;;;12.37;100.00
57050;BME280;42935;50.966;16.992;2023-08-12T02:11:53;101966.55;;;12.01;100.00
57050;BME280;42935;50.966;16.992;2023-08-12T02:15:19;102025.96;;;12.19;100.00
57050;BME280;42935;50.966;16.992;2023-08-12T02:18:43;101969.31;;;11.82;100.00
57050;BME280;42935;50.966;16.992;2023-08-12T02:22:08;102028.66;;;12.09;100.00
57050;BME280;42935;50.966;16.992;2023-08-12T02:25:33;102014.69;;;11.78;100.00
57050;BME280;42935;50.966;16.992;2023-08-12T02:29:03;101982.74;;;11.83;100.00
57050;BME280;42935;50.966;16.992;2023-08-12T02:32:23;101982.17;;;11.94;100.00
57050;BME280;42935;50.966;16.992;2023-08-12T02:35:44;102010.86;;;11.99;100.00
57050;BME280;42935;50.966;16.992;2023-08-12T02:39:08;101978.88;;;11.91;100.00
57050;BME280;42935;50.966;16.992;2023-08-12T02:42:27;101973.61;;;11.87;100.00
57050;BME280;42935;50.966;16.992;2023-08-12T02:46:19;101986.06;;;11.83;100.00
57050;BME280;42935;50.966;16.992;2023-08-12T02:49:36;102026.17;;;12.06;100.00
57050;BME280;42935;50.966;16.992;2023-08-12T02:52:58;101987.09;;;11.49;100.00
57050;BME280;42935;50.966;16.992;2023-08-12T02:56:20;102035.95;;;11.97;100.00
57050;BME280;42935;50.966;16.992;2023-08-12T02:59:45;101988.46;;;11.67;100.00
57050;BME280;42935;50.966;16.992;2023-08-12T03:03:07;102024.68;;;11.85;100.00
57050;BME280;42935;50.966;16.992;2023-08-12T03:06:25;102033.97;;;12.00;100.00
57050;BME280;42935;50.966;16.992;2023-08-12T03:09:47;102037.65;;;12.02;100.00
57050;BME280;42935;50.966;16.992;2023-08-12T03:13:10;102044.13;;;11.95;100.00
57050;BME280;42935;50.966;16.992;2023-08-12T03:16:33;102027.65;;;11.87;100.00
57050;BME280;42935;50.966;16.992;2023-08-12T03:20:23;102034.99;;;11.96;100.00
57050;BME280;42935;50.966;16.992;2023-08-12T03:23:46;102037.15;;;12.05;100.00
57050;BME280;42935;50.966;16.992;2023-08-12T03:27:10;101986.85;;;11.69;100.00
57050;BME280;42935;50.966;16.992;2023-08-12T03:30:33;102033.59;;;12.10;100.00
57050;BME280;42935;50.966;16.992;2023-08-12T03:34:24;102039.21;;;12.04;100.00
57050;BME280;42935;50.966;16.992;2023-08-12T03:37:44;102036.68;;;11.99;100.00
57050;BME280;42935;50.966;16.992;2023-08-12T03:41:35;102024.50;;;12.01;100.00
57050;BME280;42935;50.966;16.992;2023-08-12T03:44:55;101989.06;;;11.80;100.00
57050;BME280;42935;50.966;16.992;2023-08-12T03:48:17;101985.03;;;11.78;100.00
57050;BME280;42935;50.966;16.992;2023-08-12T03:51:36;102036.78;;;12.09;100.00
57050;BME280;42935;50.966;16.992;2023-08-12T03:54:57;101980.47;;;11.79;100.00
57050;BME280;42935;50.966;16.992;2023-08-12T03:58:16;102039.46;;;12.16;100.00
57050;BME280;42935;50.966;16.992;2023-08-12T04:02:08;102028.79;;;12.13;100.00
57050;BME280;42935;50.966;16.992;2023-08-12T04:05:28;101992.65;;;12.00;100.00
57050;BME280;42935;50.966;16.992;2023-08-12T04:08:47;102020.70;;;12.11;100.00
57050;BME280;42935;50.966;16.992;2023-08-12T04:12:07;102022.36;;;12.31;100.00
57050;BME280;42935;50.966;16.992;2023-08-12T04:15:27;102015.65;;;12.32;100.00
57050;BME280;42935;50.966;16.992;2023-08-12T04:18:49;101981.05;;;12.14;100.00
57050;BME280;42935;50.966;16.992;2023-08-12T04:22:14;102024.04;;;12.61;100.00
57050;BME280;42935;50.966;16.992;2023-08-12T04:26:05;102027.32;;;12.74;100.00
57050;BME280;42935;50.966;16.992;2023-08-12T04:29:26;101998.07;;;12.59;100.00
57050;BME280;42935;50.966;16.992;2023-08-12T04:33:14;102018.10;;;12.76;100.00
57050;BME280;42935;50.966;16.992;2023-08-12T04:36:36;102010.67;;;12.86;100.00
57050;BME280;42935;50.966;16.992;2023-08-12T04:39:57;101968.39;;;12.77;100.00
57050;BME280;42935;50.966;16.992;2023-08-12T04:43:18;102012.59;;;13.02;100.00
57050;BME280;42935;50.966;16.992;2023-08-12T04:46:39;101954.85;;;12.68;100.00
57050;BME280;42935;50.966;16.992;2023-08-12T04:49:56;102006.43;;;13.12;100.00
57050;BME280;42935;50.966;16.992;2023-08-12T04:53:17;102014.27;;;13.45;100.00
57050;BME280;42935;50.966;16.992;2023-08-12T04:56:44;102017.47;;;13.46;100.00
57050;BME280;42935;50.966;16.992;2023-08-12T05:00:06;101974.95;;;13.32;100.00
57050;BME280;42935;50.966;16.992;2023-08-12T05:03:30;102017.98;;;13.73;100.00
57050;BME280;42935;50.966;16.992;2023-08-12T05:07:19;101988.51;;;13.74;100.00
57050;BME280;42935;50.966;16.992;2023-08-12T05:10:40;101960.73;;;13.84;100.00
57050;BME280;42935;50.966;16.992;2023-08-12T05:14:01;101968.83;;;13.85;100.00
57050;BME280;42935;50.966;16.992;2023-08-12T05:17:24;102017.88;;;14.30;100.00
57050;BME280;42935;50.966;16.992;2023-08-12T05:20:52;102008.37;;;14.42;100.00
57050;BME280;42935;50.966;16.992;2023-08-12T05:24:13;102003.25;;;14.58;100.00
57050;BME280;42935;50.966;16.992;2023-08-12T05:27:30;101986.77;;;14.66;100.00
57050;BME280;42935;50.966;16.992;2023-08-12T05:30:52;101952.13;;;14.67;100.00
57050;BME280;42935;50.966;16.992;2023-08-12T05:34:15;101981.54;;;15.00;100.00
57050;BME280;42935;50.966;16.992;2023-08-12T05:37:36;101943.52;;;14.95;100.00
57050;BME280;42935;50.966;16.992;2023-08-12T05:40:54;101939.55;;;15.21;100.00
57050;BME280;42935;50.966;16.992;2023-08-12T05:44:13;101975.85;;;15.60;100.00
57050;BME280;42935;50.966;16.992;2023-08-12T05:47:34;101982.02;;;15.85;100.00
57050;BME280;42935;50.966;16.992;2023-08-12T05:51:25;101949.35;;;15.81;100.00
57050;BME280;42935;50.966;16.992;2023-08-12T05:54:41;101979.52;;;16.28;100.00
57050;BME280;42935;50.966;16.992;2023-08-12T05:57:59;101979.14;;;16.44;100.00
57050;BME280;42935;50.966;16.992;2023-08-12T06:01:20;101970.09;;;16.66;100.00
57050;BME280;42935;50.966;16.992;2023-08-12T06:05:10;101975.13;;;16.90;100.00
57050;BME280;42935;50.966;16.992;2023-08-12T06:08:39;101971.85;;;17.03;100.00
57050;BME280;42935;50.966;16.992;2023-08-12T06:12:03;101931.56;;;16.97;100.00
57050;BME280;42935;50.966;16.992;2023-08-12T06:15:24;101960.87;;;17.41;100.00
57050;BME280;42935;50.966;16.992;2023-08-12T06:18:45;101942.94;;;17.32;100.00
57050;BME280;42935;50.966;16.992;2023-08-12T06:22:09;101962.70;;;17.65;100.00
57050;BME280;42935;50.966;16.992;2023-08-12T06:25:27;101960.77;;;17.90;100.00
57050;BME280;42935;50.966;16.992;2023-08-12T06:28:48;101952.23;;;18.01;100.00
57050;BME280;42935;50.966;16.992;2023-08-12T06:32:11;101924.57;;;18.08;100.00
57050;BME280;42935;50.966;16.992;2023-08-12T06:35:31;101955.06;;;18.44;100.00
57050;BME280;42935;50.966;16.992;2023-08-12T06:38:57;101953.45;;;18.63;100.00
57050;BME280;42935;50.966;16.992;2023-08-12T06:42:19;101947.58;;;18.84;100.00
57050;BME280;42935;50.966;16.992;2023-08-12T06:45:39;101903.45;;;18.64;100.00
57050;BME280;42935;50.966;16.992;2023-08-12T06:49:04;101939.74;;;19.10;100.00
57050;BME280;42935;50.966;16.992;2023-08-12T06:52:25;101947.71;;;19.53;100.00
57050;BME280;42935;50.966;16.992;2023-08-12T06:55:49;101910.12;;;19.56;100.00
57050;BME280;42935;50.966;16.992;2023-08-12T06:59:05;101886.88;;;19.72;100.00
57050;BME280;42935;50.966;16.992;2023-08-12T07:02:26;101938.70;;;20.12;100.00
57050;BME280;42935;50.966;16.992;2023-08-12T07:05:47;101940.42;;;20.34;100.00
57050;BME280;42935;50.966;16.992;2023-08-12T07:09:05;101877.86;;;20.18;100.00
57050;BME280;42935;50.966;16.992;2023-08-12T07:12:26;101884.09;;;20.21;96.76
57050;BME280;42935;50.966;16.992;2023-08-12T07:15:47;101937.92;;;20.73;99.54
57050;BME280;42935;50.966;16.992;2023-08-12T07:19:05;101942.02;;;20.84;100.00
57050;BME280;42935;50.966;16.992;2023-08-12T07:22:26;101939.74;;;21.10;100.00
57050;BME280;42935;50.966;16.992;2023-08-12T07:25:47;101891.34;;;20.78;94.85
57050;BME280;42935;50.966;16.992;2023-08-12T07:29:04;101932.59;;;21.13;94.49
57050;BME280;42935;50.966;16.992;2023-08-12T07:32:25;101934.65;;;21.32;98.79
57050;BME280;42935;50.966;16.992;2023-08-12T07:35:46;101933.06;;;21.49;96.45
57050;BME280;42935;50.966;16.992;2023-08-12T07:39:04;101931.53;;;21.52;89.97
57050;BME280;42935;50.966;16.992;2023-08-12T07:42:26;101925.74;;;21.72;89.95
57050;BME280;42935;50.966;16.992;2023-08-12T07:45:54;101930.09;;;21.86;88.98
57050;BME280;42935;50.966;16.992;2023-08-12T07:49:16;101923.55;;;22.08;91.15
57050;BME280;42935;50.966;16.992;2023-08-12T07:52:34;101919.37;;;22.17;86.33
57050;BME280;42935;50.966;16.992;2023-08-12T07:55:55;101917.45;;;22.26;84.47
57050;BME280;42935;50.966;16.992;2023-08-12T07:59:48;101911.91;;;22.59;85.15
57050;BME280;42935;50.966;16.992;2023-08-12T08:03:09;101900.48;;;22.86;86.16
57050;BME280;42935;50.966;16.992;2023-08-12T08:06:30;101854.09;;;22.76;81.94
57050;BME280;42935;50.966;16.992;2023-08-12T08:09:51;101898.61;;;23.22;83.66
57050;BME280;42935;50.966;16.992;2023-08-12T08:13:13;101897.27;;;23.34;76.97
57050;BME280;42935;50.966;16.992;2023-08-12T08:16:32;101894.70;;;23.22;74.94
57050;BME280;42935;50.966;16.992;2023-08-12T08:19:51;101846.84;;;23.24;75.10
57050;BME280;42935;50.966;16.992;2023-08-12T08:23:12;101852.98;;;23.39;70.16
57050;BME280;42935;50.966;16.992;2023-08-12T08:27:03;101883.54;;;23.64;68.65
57050;BME280;42935;50.966;16.992;2023-08-12T08:30:24;101890.45;;;23.86;68.54
57050;BME280;42935;50.966;16.992;2023-08-12T08:33:46;101879.37;;;24.11;68.83
57050;BME280;42935;50.966;16.992;2023-08-12T08:37:38;101836.80;;;23.99;68.09
57050;BME280;42935;50.966;16.992;2023-08-12T08:40:55;101885.24;;;24.17;65.87
57050;BME280;42935;50.966;16.992;2023-08-12T08:44:52;101884.99;;;24.42;66.72
57050;BME280;42935;50.966;16.992;2023-08-12T08:48:13;101872.03;;;24.59;65.90
57050;BME280;42935;50.966;16.992;2023-08-12T08:52:04;101841.34;;;24.83;67.54
57050;BME280;42935;50.966;16.992;2023-08-12T08:55:26;101832.82;;;24.85;64.77
57050;BME280;42935;50.966;16.992;2023-08-12T08:59:16;101879.05;;;25.02;65.91
57050;BME280;42935;50.966;16.992;2023-08-12T09:02:39;101880.60;;;24.89;66.93
57050;BME280;42935;50.966;16.992;2023-08-12T09:06:01;101881.37;;;25.06;67.53
57050;BME280;42935;50.966;16.992;2023-08-12T09:09:28;101878.40;;;25.36;64.45
57050;BME280;42935;50.966;16.992;2023-08-12T09:12:49;101864.32;;;25.47;65.71
57050;BME280;42935;50.966;16.992;2023-08-12T09:16:08;101865.84;;;25.69;64.70
57050;BME280;42935;50.966;16.992;2023-08-12T09:19:30;101840.75;;;25.67;65.06
57050;BME280;42935;50.966;16.992;2023-08-12T09:22:57;101863.11;;;26.03;63.67
57050;BME280;42935;50.966;16.992;2023-08-12T09:26:21;101856.35;;;26.04;63.42
57050;BME280;42935;50.966;16.992;2023-08-12T09:29:46;101849.06;;;26.14;63.69
57050;BME280;42935;50.966;16.992;2023-08-12T09:33:39;101854.16;;;26.37;62.62
57050;BME280;42935;50.966;16.992;2023-08-12T09:37:00;101810.38;;;26.22;65.60
57050;BME280;42935;50.966;16.992;2023-08-12T09:40:22;101834.41;;;26.57;63.43
57050;BME280;42935;50.966;16.992;2023-08-12T09:43:44;101844.77;;;26.77;65.59
57050;BME280;42935;50.966;16.992;2023-08-12T09:47:08;101839.21;;;26.85;62.88
57050;BME280;42935;50.966;16.992;2023-08-12T09:50:29;101837.30;;;26.70;61.09
57050;BME280;42935;50.966;16.992;2023-08-12T09:53:49;101826.58;;;26.94;62.54
57050;BME280;42935;50.966;16.992;2023-08-12T09:57:11;101822.58;;;27.30;65.28
57050;BME280;42935;50.966;16.992;2023-08-12T10:00:32;101829.11;;;27.07;62.22
57050;BME280;42935;50.966;16.992;2023-08-12T10:03:53;101826.30;;;27.15;62.05
57050;BME280;42935;50.966;16.992;2023-08-12T10:07:11;101812.70;;;27.15;58.15
57050;BME280;42935;50.966;16.992;2023-08-12T10:10:35;101817.62;;;27.39;60.80
57050;BME280;42935;50.966;16.992;2023-08-12T10:13:57;101824.72;;;27.58;59.82
57050;BME280;42935;50.966;16.992;2023-08-12T10:17:14;101812.66;;;27.53;59.24
57050;BME280;42935;50.966;16.992;2023-08-12T10:20:37;101807.09;;;27.52;61.38
57050;BME280;42935;50.966;16.992;2023-08-12T10:23:59;101815.38;;;27.39;62.00
57050;BME280;42935;50.966;16.992;2023-08-12T10:27:17;101809.45;;;27.48;63.15
57050;BME280;42935;50.966;16.992;2023-08-12T10:30:42;101794.34;;;27.79;59.66
57050;BME280;42935;50.966;16.992;2023-08-12T10:34:04;101805.15;;;27.59;59.80
57050;BME280;42935;50.966;16.992;2023-08-12T10:37:32;101765.09;;;27.36;59.68
57050;BME280;42935;50.966;16.992;2023-08-12T10:51:55;101771.03;;;28.23;61.60
57050;BME280;42935;50.966;16.992;2023-08-12T10:55:22;101766.09;;;28.45;59.44
57050;BME280;42935;50.966;16.992;2023-08-12T10:58:47;101718.27;;;27.96;58.96
57050;BME280;42935;50.966;16.992;2023-08-12T11:02:07;101765.31;;;28.47;58.63
57050;BME280;42935;50.966;16.992;2023-08-12T11:05:37;101725.41;;;28.22;57.41
57050;BME280;42935;50.966;16.992;2023-08-12T11:08:54;101759.80;;;28.82;59.47
57050;BME280;42935;50.966;16.992;2023-08-12T11:15:44;101752.49;;;28.41;57.39
57050;BME280;42935;50.966;16.992;2023-08-12T11:19:09;101738.66;;;28.97;57.82
57050;BME280;42935;50.966;16.992;2023-08-12T11:22:28;101738.99;;;28.96;56.68
57050;BME280;42935;50.966;16.992;2023-08-12T11:25:49;101730.89;;;28.98;58.27
57050;BME280;42935;50.966;16.992;2023-08-12T11:29:11;101740.06;;;29.13;59.51
57050;BME280;42935;50.966;16.992;2023-08-12T11:32:32;101727.93;;;29.05;58.85
57050;BME280;42935;50.966;16.992;2023-08-12T11:35:57;101697.20;;;29.00;60.53
57050;BME280;42935;50.966;16.992;2023-08-12T11:39:21;101728.65;;;29.44;57.33
57050;BME280;42935;50.966;16.992;2023-08-12T11:42:43;101687.31;;;29.14;58.20
57050;BME280;42935;50.966;16.992;2023-08-12T11:46:05;101725.18;;;29.66;58.61
57050;BME280;42935;50.966;16.992;2023-08-12T11:49:23;101711.74;;;29.71;57.10
57050;BME280;42935;50.966;16.992;2023-08-12T11:52:41;101710.59;;;29.59;58.10
57050;BME280;42935;50.966;16.992;2023-08-12T11:56:32;101670.83;;;29.62;56.85
57050;BME280;42935;50.966;16.992;2023-08-12T12:03:28;101663.24;;;29.83;56.87
57050;BME280;42935;50.966;16.992;2023-08-12T12:06:45;101702.66;;;30.22;57.59
57050;BME280;42935;50.966;16.992;2023-08-12T12:10:13;101698.02;;;29.84;52.29
57050;BME280;42935;50.966;16.992;2023-08-12T12:13:35;101696.58;;;30.00;55.46
57050;BME280;42935;50.966;16.992;2023-08-12T12:16:58;101690.41;;;30.18;55.48
57050;BME280;42935;50.966;16.992;2023-08-12T12:20:55;101687.70;;;30.39;54.17
57050;BME280;42935;50.966;16.992;2023-08-12T12:24:16;101628.78;;;30.15;53.76
57050;BME280;42935;50.966;16.992;2023-08-12T12:27:54;101640.46;;;30.53;55.48
57050;BME280;42935;50.966;16.992;2023-08-12T12:31:11;101675.10;;;31.15;52.54
57050;BME280;42935;50.966;16.992;2023-08-12T12:34:36;101662.25;;;30.84;51.07
57050;BME280;42935;50.966;16.992;2023-08-12T12:38:27;101675.41;;;31.08;54.20
57050;BME280;42935;50.966;16.992;2023-08-12T12:41:51;101668.35;;;31.54;52.85
57050;BME280;42935;50.966;16.992;2023-08-12T12:45:12;101663.29;;;31.81;54.09
57050;BME280;42935;50.966;16.992;2023-08-12T12:49:01;101622.05;;;31.45;53.23
57050;BME280;42935;50.966;16.992;2023-08-12T12:52:22;101654.23;;;30.92;52.61
57050;BME280;42935;50.966;16.992;2023-08-12T12:55:42;101611.90;;;31.15;51.91
57050;BME280;42935;50.966;16.992;2023-08-12T12:59:08;101650.39;;;31.78;52.91
57050;BME280;42935;50.966;16.992;2023-08-12T13:02:31;101653.78;;;32.25;55.73
57050;BME280;42935;50.966;16.992;2023-08-12T13:05:52;101608.58;;;31.89;49.53
57050;BME280;42935;50.966;16.992;2023-08-12T13:09:13;101645.26;;;31.73;52.08
57050;BME280;42935;50.966;16.992;2023-08-12T13:12:34;101643.63;;;31.88;49.52
57050;BME280;42935;50.966;16.992;2023-08-12T13:15:55;101643.01;;;30.75;51.39
57050;BME280;42935;50.966;16.992;2023-08-12T13:19:16;101636.25;;;31.14;51.03
57050;BME280;42935;50.966;16.992;2023-08-12T13:22:41;101630.26;;;31.63;52.30
57050;BME280;42935;50.966;16.992;2023-08-12T13:26:02;101618.98;;;31.70;52.95
57050;BME280;42935;50.966;16.992;2023-08-12T13:29:28;101580.51;;;32.21;49.76
57050;BME280;42935;50.966;16.992;2023-08-12T13:32:51;101611.62;;;32.89;51.14
57050;BME280;42935;50.966;16.992;2023-08-12T13:36:12;101610.56;;;32.97;48.08
57050;BME280;42935;50.966;16.992;2023-08-12T13:39:33;101605.37;;;32.87;50.44
57050;BME280;42935;50.966;16.992;2023-08-12T13:42:54;101598.23;;;33.21;51.51
57050;BME280;42935;50.966;16.992;2023-08-12T13:46:15;101598.88;;;32.96;49.27
57050;BME280;42935;50.966;16.992;2023-08-12T13:49:40;101594.52;;;33.47;48.73
57050;BME280;42935;50.966;16.992;2023-08-12T13:53:01;101581.01;;;33.06;46.93
57050;BME280;42935;50.966;16.992;2023-08-12T13:56:19;101581.40;;;33.55;47.33
57050;BME280;42935;50.966;16.992;2023-08-12T13:59:46;101586.04;;;33.52;46.42
57050;BME280;42935;50.966;16.992;2023-08-12T14:03:04;101577.84;;;34.06;47.13
57050;BME280;42935;50.966;16.992;2023-08-12T14:06:33;101570.91;;;34.62;47.46
57050;BME280;42935;50.966;16.992;2023-08-12T14:09:54;101567.44;;;34.58;47.13
57050;BME280;42935;50.966;16.992;2023-08-12T14:13:43;101563.19;;;34.81;44.88
57050;BME280;42935;50.966;16.992;2023-08-12T14:17:00;101546.86;;;35.01;45.11
57050;BME280;42935;50.966;16.992;2023-08-12T14:20:25;101549.09;;;35.57;43.45
57050;BME280;42935;50.966;16.992;2023-08-12T14:24:19;101539.92;;;36.43;42.14
57050;BME280;42935;50.966;16.992;2023-08-12T14:27:41;101504.02;;;35.60;41.46
57050;BME280;42935;50.966;16.992;2023-08-12T14:31:04;101533.39;;;34.70;41.73
57050;BME280;42935;50.966;16.992;2023-08-12T14:34:57;101508.03;;;34.86;42.02
57050;BME280;42935;50.966;16.992;2023-08-12T14:38:13;101523.31;;;35.52;43.71
57050;BME280;42935;50.966;16.992;2023-08-12T14:41:31;101499.59;;;35.20;42.64
57050;BME280;42935;50.966;16.992;2023-08-12T14:44:54;101513.09;;;36.29;41.93
57050;BME280;42935;50.966;16.992;2023-08-12T14:48:19;101475.47;;;35.70;41.87
57050;BME280;42935;50.966;16.992;2023-08-12T14:52:17;101483.69;;;35.25;41.96
57050;BME280;42935;50.966;16.992;2023-08-12T14:55:40;101490.09;;;34.36;42.73
57050;BME280;42935;50.966;16.992;2023-08-12T14:59:31;101465.84;;;33.60;43.14
57050;BME280;42935;50.966;16.992;2023-08-12T15:02:52;101456.84;;;33.68;43.20
57050;BME280;42935;50.966;16.992;2023-08-12T15:06:22;101448.91;;;35.11;42.59
57050;BME280;42935;50.966;16.992;2023-08-12T15:10:17;101449.16;;;35.19;40.91
57050;BME280;42935;50.966;16.992;2023-08-12T15:13:40;101467.23;;;35.47;40.29
57050;BME280;42935;50.966;16.992;2023-08-12T15:17:35;101481.08;;;35.69;40.53
57050;BME280;42935;50.966;16.992;2023-08-12T15:21:32;101479.32;;;35.50;41.09
57050;BME280;42935;50.966;16.992;2023-08-12T15:24:57;101481.10;;;35.45;41.96
57050;BME280;42935;50.966;16.992;2023-08-12T15:28:28;101480.57;;;35.10;41.04
57050;BME280;42935;50.966;16.992;2023-08-12T15:32:05;101478.34;;;34.83;43.21
57050;BME280;42935;50.966;16.992;2023-08-12T15:35:26;101479.40;;;34.74;42.88
57050;BME280;42935;50.966;16.992;2023-08-12T15:38:50;101472.30;;;35.17;41.87
57050;BME280;42935;50.966;16.992;2023-08-12T15:42:09;101434.38;;;35.97;41.06
57050;BME280;42935;50.966;16.992;2023-08-12T15:45:35;101472.10;;;35.39;41.51
57050;BME280;42935;50.966;16.992;2023-08-12T15:49:34;101466.94;;;34.96;40.73
57050;BME280;42935;50.966;16.992;2023-08-12T15:53:06;101466.37;;;34.64;40.83
57050;BME280;42935;50.966;16.992;2023-08-12T15:56:33;101454.63;;;34.27;41.38
57050;BME280;42935;50.966;16.992;2023-08-12T16:00:33;101461.10;;;33.29;43.03
57050;BME280;42935;50.966;16.992;2023-08-12T16:03:52;101431.08;;;34.66;42.63
57050;BME280;42935;50.966;16.992;2023-08-12T16:07:11;101425.08;;;34.33;42.03
57050;BME280;42935;50.966;16.992;2023-08-12T16:11:06;101467.67;;;33.32;42.55
57050;BME280;42935;50.966;16.992;2023-08-12T16:14:35;101462.52;;;32.60;44.39
57050;BME280;42935;50.966;16.992;2023-08-12T16:17:58;101427.83;;;32.80;44.75
57050;BME280;42935;50.966;16.992;2023-08-12T16:21:19;101424.05;;;32.33;45.00
57050;BME280;42935;50.966;16.992;2023-08-12T16:24:40;101464.15;;;32.44;45.77
57050;BME280;42935;50.966;16.992;2023-08-12T16:28:00;101453.82;;;32.51;45.41
57050;BME280;42935;50.966;16.992;2023-08-12T16:31:25;101461.70;;;32.50;46.22
57050;BME280;42935;50.966;16.992;2023-08-12T16:34:42;101383.90;;;32.06;46.43
57050;BME280;42935;50.966;16.992;2023-08-12T16:38:01;101460.04;;;32.83;46.41
57050;BME280;42935;50.966;16.992;2023-08-12T16:41:53;101452.97;;;32.20;47.08
57050;BME280;42935;50.966;16.992;2023-08-12T16:45:14;101455.52;;;32.11;47.35
57050;BME280;42935;50.966;16.992;2023-08-12T16:48:40;101463.77;;;31.97;47.99
57050;BME280;42935;50.966;16.992;2023-08-12T16:52:32;101456.28;;;31.52;49.01
57050;BME280;42935;50.966;16.992;2023-08-12T16:56:27;101461.45;;;31.06;50.48
57050;BME280;42935;50.966;16.992;2023-08-12T16:59:54;101449.89;;;31.04;50.25
57050;BME280;42935;50.966;16.992;2023-08-12T17:03:20;101450.77;;;30.77;52.00
57050;BME280;42935;50.966;16.992;2023-08-12T17:06:42;101450.84;;;31.02;52.42
57050;BME280;42935;50.966;16.992;2023-08-12T17:10:10;101410.23;;;30.49;51.88
57050;BME280;42935;50.966;16.992;2023-08-12T17:13:36;101441.53;;;30.17;52.59
57050;BME280;42935;50.966;16.992;2023-08-12T17:17:00;101463.51;;;29.71;53.62
57050;BME280;42935;50.966;16.992;2023-08-12T17:20:27;101428.70;;;28.95;54.91
57050;BME280;42935;50.966;16.992;2023-08-12T17:23:48;101464.66;;;28.83;55.91
57050;BME280;42935;50.966;16.992;2023-08-12T17:27:09;101466.92;;;28.92;55.88
57050;BME280;42935;50.966;16.992;2023-08-12T17:30:27;101464.91;;;28.76;57.11
57050;BME280;42935;50.966;16.992;2023-08-12T17:33:51;101458.32;;;28.52;57.99
57050;BME280;42935;50.966;16.992;2023-08-12T17:37:12;101474.72;;;28.34;58.35
57050;BME280;42935;50.966;16.992;2023-08-12T17:40:33;101429.89;;;27.88;57.78
57050;BME280;42935;50.966;16.992;2023-08-12T17:44:23;101463.71;;;27.92;57.67
57050;BME280;42935;50.966;16.992;2023-08-12T17:51:17;101457.72;;;27.49;58.28
57050;BME280;42935;50.966;16.992;2023-08-12T17:54:41;101457.13;;;27.36;58.55
57050;BME280;42935;50.966;16.992;2023-08-12T17:58:02;101418.93;;;27.16;58.67
57050;BME280;42935;50.966;16.992;2023-08-12T18:01:25;101455.91;;;26.82;60.14